Time;durP1;ratioP1;P1;durP2;ratioP2;P2;SDS_P1;SDS_P2;PMS_P1;PMS_P2;Temp;Humidity;BMP_temperature;BMP_pressure;BME280_temperature;BME280_humidity;BME280_pressure;Samples;Min_cycle;Max_cycle;Signal;HPM_P1;HPM_P2
2023/07/31 07:00:34;;;;;;;;;;;;;;;;;;5381961;23;20287;-86
2023/07/31 07:02:59;;;;;;;;;;;;;;;;;;4967004;28;19918;-86
2023/07/31 07:05:24;;;;;;;;;;;;;;;;;;4966109;28;19949;-87
2023/07/31 07:07:51;;;;;;;;;;;;;;;;;;4942091;29;20333;-84
2023/07/31 07:10:16;;;;;;;;;;;;;;;;;;4951267;29;19914;-86
2023/07/31 07:12:42;;;;;;;;;;;;;;;;;;4939268;29;20445;-89
2023/07/31 07:15:07;;;;;;;;;;;;;;;;;;4956262;29;19969;-84
2023/07/31 07:17:33;;;;;;;;;;;;;;;;;;4951865;28;19915;-83
2023/07/31 07:19:59;;;;;;;;;;;;;;;;;;4936904;29;19938;-88
2023/07/31 07:22:25;;;;;;;;;;;;;;;;;;4942121;29;20285;-85
2023/07/31 07:24:51;;;;;;;;;;;;;;;;;;4956454;29;20008;-85
2023/07/31 07:27:16;;;;;;;;;;;;;;;;;;4938903;29;20365;-86
2023/07/31 07:29:41;;;;;;;;;;;;;;;;;;4955282;28;20016;-82
2023/07/31 07:32:07;;;;;;;;;;;;;;;;;;4956271;29;20027;-88
2023/07/31 08:45:08;;;;;;;;;;;;;;;;;;4897120;29;19971;-85
2023/07/31 08:47:33;;;;;;;;;;;;;;;;;;4902699;29;19919;-83
2023/07/31 08:49:59;;;;;;;;;;;;;;;;;;4902863;29;20029;-87
2023/07/31 08:52:24;;;;;;;;;;;;;;;;;;4916909;29;20017;-87
2023/07/31 08:54:50;;;;;;;;;;;;;;;;;;4921174;29;19958;-87
2023/07/31 08:57:16;;;;;;;;;;;;;;;;;;4922397;29;20002;-87
2023/07/31 08:59:42;;;;;;;;;;;;;;;;;;4922162;29;19950;-84
2023/07/31 09:02:08;;;;;;;;;;;;;;;;;;4922165;29;19926;-86
2023/07/31 09:04:33;;;;;;;;;;;;;;;;;;4920728;29;20242;-83
2023/07/31 09:07:05;;;;;;;;;;;;;;;;;;4920694;29;19915;-86
2023/07/31 09:09:31;;;;;;;;;;;;;;;;;;4920862;29;19922;-87
2023/07/31 09:11:57;;;;;;;;;;;;;;;;;;4920772;29;19919;-87
2023/07/31 09:14:24;;;;;;;;;;;;;;;;;;4920583;29;19998;-83
2023/07/31 09:16:59;;;;;;;;;;;;;;;;;;4903449;29;19919;-86
2023/07/31 09:19:37;;;;;;;;;;;;;;;;;;4920834;29;20009;-85
2023/07/31 09:22:02;;;;;;;;;;;;;;;;;;4920111;29;19915;-85
2023/07/31 09:24:28;;;;;;;;;;;;;;;;;;4920322;29;19919;-82
2023/07/31 09:26:55;;;;;;;;;;;;;;;;;;4920111;29;20006;-82
2023/07/31 09:29:20;;;;;;;;;;;;;;;;;;4920167;29;19922;-81
2023/07/31 09:31:46;;;;;;;;;;;;;;;;;;4920101;29;19915;-86
2023/07/31 09:34:11;;;;;;;;;;;;;;;;;;4920229;29;20002;-82
2023/07/31 09:36:44;;;;;;;;;;;;;;;;;;4920035;29;19937;-82
2023/07/31 09:39:13;;;;;;;;;;;;;;;;;;4919844;29;19915;-85
2023/07/31 09:41:39;;;;;;;;;;;;;;;;;;4920055;29;19930;-89
2023/07/31 09:44:04;;;;;;;;;;;;;;;;;;4919876;29;19915;-81
2023/07/31 09:46:30;;;;;;;;;;;;;;;;;;4919563;29;19919;-83
2023/07/31 09:49:14;;;;;;;;;;;;;;;;;;4919827;29;19969;-81
2023/07/31 09:51:40;;;;;;;;;;;;;;;;;;4918962;29;20013;-81
2023/07/31 09:54:12;;;;;;;;;;;;;;;;;;4919836;29;19910;-84
2023/07/31 09:56:41;;;;;;;;;;;;;;;;;;4919558;29;19914;-82
2023/07/31 09:59:07;;;;;;;;;;;;;;;;;;4919704;29;19912;-81
2023/07/31 10:01:33;;;;;;;;;;;;;;;;;;4919761;29;19915;-81
2023/07/31 10:03:59;;;;;;;;;;;;;;;;;;4919705;29;19918;-86
2023/07/31 10:06:25;;;;;;;;;;;;;;;;;;4919743;29;19915;-82
2023/07/31 10:08:51;;;;;;;;;;;;;;;;;;4918259;29;19921;-82
2023/07/31 10:11:16;;;;;;;;;;;;;;;;;;4919428;29;19970;-84
2023/07/31 10:13:42;;;;;;;;;;;;;;;;;;4919291;29;19915;-83
2023/07/31 10:16:08;;;;;;;;;;;;;;;;;;4919235;29;19919;-80
2023/07/31 10:18:35;;;;;;;;;;;;;;;;;;4919624;29;19915;-81
2023/07/31 10:21:00;;;;;;;;;;;;;;;;;;4919168;29;19915;-85
2023/07/31 10:23:26;;;;;;;;;;;;;;;;;;4919151;29;19921;-84
2023/07/31 10:25:53;;;;;;;;;;;;;;;;;;4919048;29;19922;-81
2023/07/31 10:28:18;;;;;;;;;;;;;;;;;;4919231;29;19919;-82
2023/07/31 10:30:44;;;;;;;;;;;;;;;;;;4919193;29;19969;-83
2023/07/31 10:33:09;;;;;;;;;;;;;;;;;;4919057;29;19921;-80
2023/07/31 10:35:35;;;;;;;;;;;;;;;;;;4918942;29;20018;-85
2023/07/31 10:38:11;;;;;;;;;;;;;;;;;;4918937;29;19960;-85
2023/07/31 10:40:37;;;;;;;;;;;;;;;;;;4901922;29;20022;-84
2023/07/31 10:43:02;;;;;;;;;;;;;;;;;;4918701;29;20389;-85
2023/07/31 10:45:38;;;;;;;;;;;;;;;;;;4918842;29;19922;-85
2023/07/31 10:48:04;;;;;;;;;;;;;;;;;;4918607;29;20388;-85
2023/07/31 10:50:34;;;;;;;;;;;;;;;;;;4918713;29;19915;-83
2023/07/31 10:53:03;;;;;;;;;;;;;;;;;;4918738;29;20013;-87
2023/07/31 10:55:28;;;;;;;;;;;;;;;;;;4919064;29;19915;-85
2023/07/31 10:57:54;;;;;;;;;;;;;;;;;;4918993;29;20006;-88
2023/07/31 11:00:23;;;;;;;;;;;;;;;;;;4918682;29;20013;-82
2023/07/31 11:02:58;;;;;;;;;;;;;;;;;;4918608;29;20009;-81
2023/07/31 11:05:40;;;;;;;;;;;;;;;;;;4918662;29;19979;-83
2023/07/31 11:08:20;;;;;;;;;;;;;;;;;;4918403;29;19915;-86
2023/07/31 11:10:46;;;;;;;;;;;;;;;;;;4918299;29;19959;-87
2023/07/31 11:13:11;;;;;;;;;;;;;;;;;;4919099;29;19946;-85
2023/07/31 11:15:36;;;;;;;;;;;;;;;;;;4918886;29;20366;-83
2023/07/31 11:18:10;;;;;;;;;;;;;;;;;;4918388;29;20021;-85
2023/07/31 11:20:36;;;;;;;;;;;;;;;;;;4918140;29;19915;-86
2023/07/31 11:23:02;;;;;;;;;;;;;;;;;;4918188;29;20437;-85
2023/07/31 11:25:31;;;;;;;;;;;;;;;;;;4918062;29;19915;-80
2023/07/31 11:27:57;;;;;;;;;;;;;;;;;;4918099;29;20001;-86
2023/07/31 11:30:22;;;;;;;;;;;;;;;;;;4918132;29;20002;-86
2023/07/31 11:32:47;;;;;;;;;;;;;;;;;;4918151;29;19926;-82
2023/07/31 11:35:13;;;;;;;;;;;;;;;;;;4917561;29;20255;-84
2023/07/31 11:37:42;;;;;;;;;;;;;;;;;;4917841;29;19915;-82
2023/07/31 11:40:07;;;;;;;;;;;;;;;;;;4917850;29;19922;-84
2023/07/31 11:42:34;;;;;;;;;;;;;;;;;;4917872;29;19915;-84
2023/07/31 11:45:01;;;;;;;;;;;;;;;;;;4900548;29;20281;-82
2023/07/31 11:47:27;;;;;;;;;;;;;;;;;;4917882;29;19915;-80
2023/07/31 11:49:53;;;;;;;;;;;;;;;;;;4917910;29;20394;-83
2023/07/31 11:52:20;;;;;;;;;;;;;;;;;;4917656;29;20022;-83
2023/07/31 12:28:22;;;;;;;;;;;;;;;;;;4861773;26;19922;-86
2023/07/31 12:30:47;;;;;;;;;;;;;;;;;;4940484;29;19915;-84
2023/07/31 12:33:14;;;;;;;;;;;;;;;;;;4940305;29;20317;-85
2023/07/31 12:35:44;;;;;;;;;;;;;;;;;;4932450;29;20357;-82
2023/07/31 12:38:09;;;;;;;;;;;;;;;;;;4940201;29;19914;-81
2023/07/31 12:40:36;;;;;;;;;;;;;;;;;;4940201;29;19969;-84
2023/07/31 12:43:03;;;;;;;;;;;;;;;;;;4940229;29;19919;-85
2023/07/31 12:45:28;;;;;;;;;;;;;;;;;;4939994;29;19936;-84
2023/07/31 12:47:54;;;;;;;;;;;;;;;;;;4940008;29;20401;-85
2023/07/31 12:50:19;;;;;;;;;;;;;;;;;;4940092;29;19915;-81
2023/07/31 12:52:44;;;;;;;;;;;;;;;;;;4940368;29;20361;-84
2023/07/31 12:55:10;;;;;;;;;;;;;;;;;;4938456;29;19918;-82
2023/07/31 12:57:36;;;;;;;;;;;;;;;;;;4940073;29;19937;-80
2023/07/31 13:00:01;;;;;;;;;;;;;;;;;;4939966;29;20374;-80
2023/07/31 13:02:27;;;;;;;;;;;;;;;;;;4939781;29;19914;-80
2023/07/31 13:04:54;;;;;;;;;;;;;;;;;;4939418;29;19954;-80
2023/07/31 13:07:19;;;;;;;;;;;;;;;;;;4939873;29;19914;-81
2023/07/31 13:09:44;;;;;;;;;;;;;;;;;;4939654;29;19914;-81
2023/07/31 13:12:10;;;;;;;;;;;;;;;;;;4939780;29;19930;-81
2023/07/31 13:14:35;;;;;;;;;;;;;;;;;;4939490;29;20437;-81
2023/07/31 13:17:00;;;;;;;;;;;;;;;;;;4939501;29;19915;-86
2023/07/31 13:19:26;;;;;;;;;;;;;;;;;;4939399;29;20277;-80
2023/07/31 13:21:51;;;;;;;;;;;;;;;;;;4939445;29;20301;-86
2023/07/31 13:24:16;;;;;;;;;;;;;;;;;;4939508;29;20314;-80
2023/07/31 13:26:42;;;;;;;;;;;;;;;;;;4939513;29;19937;-80
2023/07/31 13:29:07;;;;;;;;;;;;;;;;;;4951884;28;20017;-80
2023/07/31 13:31:32;;;;;;;;;;;;;;;;;;4958283;29;19921;-81
2023/07/31 13:33:58;;;;;;;;;;;;;;;;;;4958352;29;20341;-82
2023/07/31 13:36:23;;;;;;;;;;;;;;;;;;4958138;28;19914;-81
2023/07/31 13:38:48;;;;;;;;;;;;;;;;;;4958313;29;19937;-80
2023/07/31 13:41:14;;;;;;;;;;;;;;;;;;4958072;29;19920;-81
2023/07/31 13:43:39;;;;;;;;;;;;;;;;;;4958162;29;20012;-80
2023/07/31 13:46:07;;;;;;;;;;;;;;;;;;4958213;28;20258;-81
2023/07/31 13:48:36;;;;;;;;;;;;;;;;;;4956658;29;19919;-80
2023/07/31 13:51:01;;;;;;;;;;;;;;;;;;4958174;29;20005;-80
2023/07/31 13:53:26;;;;;;;;;;;;;;;;;;4958365;29;19946;-80
2023/07/31 13:55:51;;;;;;;;;;;;;;;;;;4957968;28;19970;-80
2023/07/31 13:58:17;;;;;;;;;;;;;;;;;;4957981;29;20005;-79
2023/07/31 14:00:42;;;;;;;;;;;;;;;;;;4958000;29;19961;-79
2023/07/31 14:03:08;;;;;;;;;;;;;;;;;;4957936;29;19920;-80
2023/07/31 14:05:33;;;;;;;;;;;;;;;;;;4957744;28;19958;-82
2023/07/31 14:07:58;;;;;;;;;;;;;;;;;;4957685;29;19918;-80
2023/07/31 14:10:24;;;;;;;;;;;;;;;;;;4957827;29;19915;-79
2023/07/31 14:12:49;;;;;;;;;;;;;;;;;;4957776;29;19914;-78
2023/07/31 14:15:14;;;;;;;;;;;;;;;;;;4957499;28;20001;-79
2023/07/31 14:17:39;;;;;;;;;;;;;;;;;;4957571;29;20061;-80
2023/07/31 14:20:05;;;;;;;;;;;;;;;;;;4956373;29;19918;-80
2023/07/31 14:22:33;;;;;;;;;;;;;;;;;;4957417;29;20382;-82
2023/07/31 14:24:58;;;;;;;;;;;;;;;;;;4957168;28;19918;-80
2023/07/31 14:27:24;;;;;;;;;;;;;;;;;;4957435;29;19991;-84
2023/07/31 14:29:49;;;;;;;;;;;;;;;;;;4957172;29;19918;-82
2023/07/31 14:32:14;;;;;;;;;;;;;;;;;;4940193;29;19914;-80
2023/07/31 14:34:40;;;;;;;;;;;;;;;;;;4957010;28;19956;-85
2023/07/31 14:37:05;;;;;;;;;;;;;;;;;;4957161;28;19961;-80
2023/07/31 14:39:30;;;;;;;;;;;;;;;;;;4956976;29;19921;-84
2023/07/31 14:41:56;;;;;;;;;;;;;;;;;;4957255;29;20361;-85
2023/07/31 14:44:21;;;;;;;;;;;;;;;;;;4956922;28;20387;-83
2023/07/31 17:00:41;;;;;;;;;;;;;;;;;;4953055;28;19918;-80
2023/07/31 17:03:07;;;;;;;;;;;;;;;;;;4959044;29;20273;-85
2023/07/31 17:05:32;;;;;;;;;;;;;;;;;;4958833;29;19997;-84
2023/07/31 17:07:57;;;;;;;;;;;;;;;;;;4958585;29;19962;-84
2023/07/31 17:10:22;;;;;;;;;;;;;;;;;;4958558;29;19953;-86
2023/07/31 17:12:48;;;;;;;;;;;;;;;;;;4958935;29;20324;-88
2023/07/31 17:15:13;;;;;;;;;;;;;;;;;;4958750;29;20428;-81
2023/07/31 17:17:38;;;;;;;;;;;;;;;;;;4958530;29;19914;-85
2023/07/31 17:20:04;;;;;;;;;;;;;;;;;;4959503;29;19932;-84
2023/07/31 17:22:29;;;;;;;;;;;;;;;;;;4959182;29;19918;-89
2023/07/31 17:24:54;;;;;;;;;;;;;;;;;;4942157;29;20273;-92
2023/07/31 17:27:23;;;;;;;;;;;;;;;;;;4959680;29;19914;-86
2023/07/31 17:29:48;;;;;;;;;;;;;;;;;;4959799;29;19915;-85
2023/07/31 17:32:13;;;;;;;;;;;;;;;;;;4959219;29;20421;-85
2023/07/31 17:34:39;;;;;;;;;;;;;;;;;;4961176;29;19914;-85
2023/07/31 17:37:04;;;;;;;;;;;;;;;;;;4960389;29;19954;-91
2023/07/31 17:39:29;;;;;;;;;;;;;;;;;;4943230;29;19911;-92
2023/07/31 17:41:55;;;;;;;;;;;;;;;;;;4958437;29;19922;-91
2023/07/31 17:44:20;;;;;;;;;;;;;;;;;;4958370;29;20270;-94
2023/07/31 17:46:47;;;;;;;;;;;;;;;;;;4958638;29;19911;-94
2023/07/31 17:49:12;;;;;;;;;;;;;;;;;;4958580;29;19922;-92
2023/07/31 17:51:38;;;;;;;;;;;;;;;;;;4958376;29;19914;-89
2023/07/31 17:54:05;;;;;;;;;;;;;;;;;;4958204;29;19921;-92
2023/07/31 17:56:31;;;;;;;;;;;;;;;;;;4958264;29;19961;-89
2023/07/31 17:58:56;;;;;;;;;;;;;;;;;;4958257;29;19922;-86
2023/07/31 18:01:22;;;;;;;;;;;;;;;;;;4940463;29;19966;-86
2023/07/31 18:03:48;;;;;;;;;;;;;;;;;;4957759;29;19915;-85
2023/07/31 18:06:13;;;;;;;;;;;;;;;;;;4959936;29;19910;-93
2023/07/31 18:08:38;;;;;;;;;;;;;;;;;;4945538;29;19936;-96
2023/07/31 18:11:05;;;;;;;;;;;;;;;;;;4941781;29;19914;-96
2023/07/31 18:13:30;;;;;;;;;;;;;;;;;;4962580;28;20336;-91
2023/07/31 18:15:55;;;;;;;;;;;;;;;;;;4969332;29;19914;-89
2023/07/31 18:18:23;;;;;;;;;;;;;;;;;;4973135;29;19914;-92
2023/07/31 18:20:48;;;;;;;;;;;;;;;;;;4975389;29;19914;-96
2023/07/31 18:23:14;;;;;;;;;;;;;;;;;;4963477;29;19938;-95
2023/07/31 18:25:39;;;;;;;;;;;;;;;;;;4941456;29;19915;-92
2023/07/31 18:28:05;;;;;;;;;;;;;;;;;;4961096;29;19914;-96
2023/07/31 18:30:30;;;;;;;;;;;;;;;;;;4940779;29;20038;-93
2023/07/31 18:32:55;;;;;;;;;;;;;;;;;;4958329;29;19992;-91
2023/07/31 18:35:21;;;;;;;;;;;;;;;;;;4939799;29;19914;-91
2023/07/31 18:37:46;;;;;;;;;;;;;;;;;;4957567;29;19915;-88
2023/07/31 18:40:11;;;;;;;;;;;;;;;;;;4957170;29;19922;-92
2023/07/31 18:42:37;;;;;;;;;;;;;;;;;;4957306;29;19914;-90
2023/07/31 18:45:03;;;;;;;;;;;;;;;;;;4939989;29;20022;-91
2023/07/31 18:47:28;;;;;;;;;;;;;;;;;;4957550;29;19920;-88
2023/07/31 18:49:53;;;;;;;;;;;;;;;;;;4958310;29;19915;-90
2023/07/31 18:52:18;;;;;;;;;;;;;;;;;;4957782;29;20009;-88
2023/07/31 18:54:44;;;;;;;;;;;;;;;;;;4957415;29;20367;-91
2023/07/31 18:57:09;;;;;;;;;;;;;;;;;;4956760;29;19914;-89
2023/07/31 18:59:34;;;;;;;;;;;;;;;;;;4940089;29;19914;-91
2023/07/31 19:02:00;;;;;;;;;;;;;;;;;;4957258;28;19964;-91
2023/07/31 19:04:25;;;;;;;;;;;;;;;;;;4956986;29;20008;-88
2023/07/31 19:06:51;;;;;;;;;;;;;;;;;;4939424;29;19918;-91
2023/07/31 19:09:26;;;;;;;;;;;;;;;;;;4957044;29;19918;-88
2023/07/31 19:11:52;;;;;;;;;;;;;;;;;;4958063;29;19918;-89
2023/07/31 19:14:17;;;;;;;;;;;;;;;;;;4958060;29;20383;-91
2023/07/31 19:16:42;;;;;;;;;;;;;;;;;;4957028;29;19921;-91
2023/07/31 19:19:08;;;;;;;;;;;;;;;;;;4957002;29;19914;-87
2023/07/31 19:21:33;;;;;;;;;;;;;;;;;;4959129;29;19914;-91
2023/07/31 19:23:58;;;;;;;;;;;;;;;;;;4939788;29;19914;-90
2023/07/31 19:26:23;;;;;;;;;;;;;;;;;;4939482;29;19966;-89
2023/07/31 19:28:49;;;;;;;;;;;;;;;;;;4938978;29;19969;-86
2023/07/31 19:31:14;;;;;;;;;;;;;;;;;;4956615;29;19981;-89
2023/07/31 19:33:39;;;;;;;;;;;;;;;;;;4956634;29;19994;-92
2023/07/31 19:36:05;;;;;;;;;;;;;;;;;;4956531;29;19949;-88
2023/07/31 19:38:30;;;;;;;;;;;;;;;;;;4956459;29;19997;-90
2023/07/31 19:41:00;;;;;;;;;;;;;;;;;;4956265;29;20351;-90
2023/07/31 19:43:25;;;;;;;;;;;;;;;;;;4938890;29;19914;-89
2023/07/31 19:45:51;;;;;;;;;;;;;;;;;;4939304;29;19914;-88
2023/07/31 19:48:17;;;;;;;;;;;;;;;;;;4955848;29;20017;-86
2023/07/31 19:50:42;;;;;;;;;;;;;;;;;;4956114;29;20061;-89
2023/07/31 19:53:07;;;;;;;;;;;;;;;;;;4956214;29;19914;-88
2023/07/31 19:55:33;;;;;;;;;;;;;;;;;;4956076;29;19914;-89
2023/07/31 19:57:58;;;;;;;;;;;;;;;;;;4956208;29;19922;-87
2023/07/31 20:00:23;;;;;;;;;;;;;;;;;;4955989;29;20377;-90
2023/07/31 20:02:49;;;;;;;;;;;;;;;;;;4956021;29;19965;-90
2023/07/31 20:05:14;;;;;;;;;;;;;;;;;;4956531;29;19914;-92
2023/07/31 20:07:39;;;;;;;;;;;;;;;;;;4938882;29;19914;-92
2023/07/31 20:10:05;;;;;;;;;;;;;;;;;;4956043;29;19914;-92
2023/07/31 20:12:30;;;;;;;;;;;;;;;;;;4956153;29;19914;-87
2023/07/31 20:15:00;;;;;;;;;;;;;;;;;;4956154;29;19915;-93
2023/07/31 20:17:27;;;;;;;;;;;;;;;;;;4956083;29;19921;-90
2023/07/31 20:19:53;;;;;;;;;;;;;;;;;;4939196;29;20281;-89
2023/07/31 20:22:18;;;;;;;;;;;;;;;;;;4956265;29;19921;-91
2023/07/31 20:24:43;;;;;;;;;;;;;;;;;;4956028;29;20322;-92
2023/07/31 20:27:09;;;;;;;;;;;;;;;;;;4955821;29;19978;-88
2023/07/31 20:29:34;;;;;;;;;;;;;;;;;;4938972;29;20392;-91
2023/07/31 20:31:59;;;;;;;;;;;;;;;;;;4956156;29;19914;-91
2023/07/31 20:34:25;;;;;;;;;;;;;;;;;;4938741;29;20006;-89
2023/07/31 20:36:50;;;;;;;;;;;;;;;;;;4957757;28;19930;-90
2023/07/31 20:39:15;;;;;;;;;;;;;;;;;;4959514;29;19957;-91
2023/07/31 20:41:42;;;;;;;;;;;;;;;;;;4958556;29;19965;-90
2023/07/31 20:44:07;;;;;;;;;;;;;;;;;;4959627;29;19974;-89
2023/07/31 20:46:32;;;;;;;;;;;;;;;;;;4959214;29;19918;-91
2023/07/31 20:48:58;;;;;;;;;;;;;;;;;;4943040;29;19985;-91
2023/07/31 20:51:23;;;;;;;;;;;;;;;;;;4960094;29;19969;-91
2023/07/31 20:53:51;;;;;;;;;;;;;;;;;;4960438;29;20317;-91
2023/07/31 20:56:16;;;;;;;;;;;;;;;;;;4959416;29;19918;-90
2023/07/31 20:58:42;;;;;;;;;;;;;;;;;;4959455;29;19937;-91
2023/07/31 21:01:07;;;;;;;;;;;;;;;;;;4959185;28;19925;-90
2023/07/31 21:03:33;;;;;;;;;;;;;;;;;;4958949;29;19921;-90
2023/07/31 21:06:00;;;;;;;;;;;;;;;;;;4961269;29;19910;-90
2023/07/31 21:08:25;;;;;;;;;;;;;;;;;;4958906;29;20378;-90
2023/07/31 21:10:51;;;;;;;;;;;;;;;;;;4942281;29;19927;-92
2023/07/31 21:13:17;;;;;;;;;;;;;;;;;;4959540;29;19923;-90
2023/07/31 21:15:42;;;;;;;;;;;;;;;;;;4959183;29;20387;-90
2023/07/31 21:18:08;;;;;;;;;;;;;;;;;;4958365;29;19921;-91
2023/07/31 21:20:33;;;;;;;;;;;;;;;;;;4941504;29;19914;-91
2023/07/31 21:23:03;;;;;;;;;;;;;;;;;;4941455;29;19914;-90
2023/07/31 21:25:29;;;;;;;;;;;;;;;;;;4958863;29;20345;-90
2023/07/31 21:27:54;;;;;;;;;;;;;;;;;;4941382;29;19922;-90
2023/07/31 21:30:19;;;;;;;;;;;;;;;;;;4958618;29;20013;-90
2023/07/31 21:32:45;;;;;;;;;;;;;;;;;;4958661;29;20271;-91
2023/07/31 21:35:10;;;;;;;;;;;;;;;;;;4958642;29;19921;-91
2023/07/31 21:37:36;;;;;;;;;;;;;;;;;;4958432;29;19961;-91
2023/07/31 21:40:02;;;;;;;;;;;;;;;;;;4958486;29;19914;-91
2023/07/31 21:42:28;;;;;;;;;;;;;;;;;;4941031;29;19922;-88
2023/07/31 21:44:53;;;;;;;;;;;;;;;;;;4958510;29;19914;-90
2023/07/31 21:47:18;;;;;;;;;;;;;;;;;;4957226;28;19920;-91
2023/07/31 21:49:44;;;;;;;;;;;;;;;;;;4957842;29;19919;-91
2023/07/31 21:52:09;;;;;;;;;;;;;;;;;;4958096;29;20013;-90
2023/07/31 21:54:34;;;;;;;;;;;;;;;;;;4958225;29;19922;-90
2023/07/31 21:57:00;;;;;;;;;;;;;;;;;;4958413;29;19961;-88
2023/07/31 21:59:25;;;;;;;;;;;;;;;;;;4957919;29;19922;-88
2023/07/31 22:01:50;;;;;;;;;;;;;;;;;;4957002;28;19957;-89
2023/07/31 22:04:16;;;;;;;;;;;;;;;;;;4957746;29;20505;-90
2023/07/31 22:06:42;;;;;;;;;;;;;;;;;;4941038;29;19918;-95
